Terminal Aerodrome Forecast
Issued by NWS Shreveport, LA

Home | Current Version | Previous Version | Text Only | Print | Product List | Glossary On
Versions: 1 2 3 4 5 6 7 8 9 10 11 12 13
000
FTUS44 KSHV 280500
TAFLFK
TAF
KLFK 280533Z 2806/2906 VRB03KT P6SM SKC
     FM281400 14005KT P6SM FEW250
     FM281800 17007KT P6SM FEW045 SCT250
     FM290000 15005KT P6SM SCT045 SCT250
      TEMPO 2903/2906 BKN030=

USA.gov is the U.S. government's official web portal to all federal, state and local government web resources and services.